logo
Search for airport 
image banner adimage banner adimage banner ad
image banner ad

CAU6 - Gold River

Located in , Canada

ICAO - CAU6, IATA -

Data provided by Airmate  

General information

Coordinates: N49°40'60" W126°6'60"
Elevation is 10 feet MSL.
Magnetic variation is 17.56° East
View others Airports in British Columbia

Operational data

Special qualification required
Current time UTC:
Current local time:
Weather at : CYBL - Campbell River ( 67 km )
METAR: CYBL 171400Z 27002KT 30SM FEW260 16/13 A2996 RMK CI1 SLP147 DENSITY ALT 600FT
View NOTAMs / SUP AIP / TFR affecting this airport [VIEW]
Communications frequencies: [VIEW]

Runways:

RWY identifierQFULength (ft)Width (ft)SurfaceLDA (ft)
W00WATER

Airport contact information

Address: Canada

Satellite view of CAU6